Time;durP1;ratioP1;P1;durP2;ratioP2;P2;SDS_P1;SDS_P2;PMS_P1;PMS_P2;Temp;Humidity;BMP_temperature;BMP_pressure;BME280_temperature;BME280_humidity;BME280_pressure;Samples;Min_cycle;Max_cycle;Signal;HPM_P1;HPM_P2
2022/05/28 00:01:23;;;;;;;12.93;2.00;;;10.90;99.90;;;;;;12167943;29;20111;-80
2022/05/28 00:07:25;;;;;;;8.02;1.52;;;11.00;99.90;;;;;;12169867;29;20403;-82
2022/05/28 00:13:27;;;;;;;7.25;1.40;;;11.00;99.90;;;;;;12164132;29;20146;-81
2022/05/28 00:19:29;;;;;;;8.07;1.55;;;10.90;99.90;;;;;;12165443;29;20151;-82
2022/05/28 00:25:31;;;;;;;7.97;1.92;;;10.80;99.90;;;;;;12161097;29;20108;-81
2022/05/28 00:31:33;;;;;;;12.10;1.60;;;10.90;99.90;;;;;;12169386;29;20192;-81
2022/05/28 00:37:35;;;;;;;10.55;1.73;;;10.90;99.90;;;;;;12164848;29;20539;-79
2022/05/28 00:43:39;;;;;;;9.00;1.35;;;10.70;99.90;;;;;;12141051;29;20139;-79
2022/05/28 00:49:43;;;;;;;12.93;1.92;;;10.90;99.90;;;;;;12158165;29;20067;-79
2022/05/28 00:55:45;;;;;;;10.45;2.15;;;10.70;99.90;;;;;;12155707;29;20147;-80
2022/05/28 01:01:47;;;;;;;11.02;2.00;;;10.80;99.90;;;;;;12146034;29;20060;-79
2022/05/28 01:08:19;;;;;;;10.55;1.67;;;10.70;99.90;;;;;;12140469;29;20056;-79
2022/05/28 01:14:41;;;;;;;13.15;1.70;;;10.70;99.90;;;;;;12158838;29;20060;-79
2022/05/28 01:20:50;;;;;;;10.07;1.92;;;10.70;99.90;;;;;;12132688;29;20115;-80
2022/05/28 01:27:00;;;;;;;10.35;2.13;;;10.60;99.90;;;;;;12155777;29;20063;-80
2022/05/28 01:33:03;;;;;;;9.82;1.73;;;10.60;99.90;;;;;;12156137;29;20115;-79
2022/05/28 01:39:07;;;;;;;11.65;1.92;;;10.70;99.90;;;;;;12142816;29;20150;-81
2022/05/28 01:45:11;;;;;;;11.87;1.60;;;10.70;99.90;;;;;;12155690;29;20406;-79
2022/05/28 01:51:15;;;;;;;7.55;1.50;;;10.50;99.90;;;;;;12157148;29;20059;-80
2022/05/28 01:57:17;;;;;;;9.45;1.98;;;10.50;99.90;;;;;;12136013;29;20056;-80
2022/05/28 02:03:20;;;;;;;8.15;1.83;;;10.50;99.90;;;;;;12159306;29;20056;-80
2022/05/28 02:09:28;;;;;;;11.60;2.05;;;10.50;99.90;;;;;;12144822;29;20922;-78
2022/05/28 02:15:58;;;;;;;9.57;1.98;;;10.40;99.90;;;;;;12137966;29;20513;-79
2022/05/28 02:22:10;;;;;;;9.38;1.95;;;10.30;99.90;;;;;;12154659;29;20056;-79
2022/05/28 02:28:14;;;;;;;12.27;1.90;;;10.30;99.90;;;;;;12162771;29;20065;-81
2022/05/28 02:34:18;;;;;;;10.50;2.10;;;10.40;99.90;;;;;;12152245;29;20064;-78
2022/05/28 02:40:19;;;;;;;7.30;1.83;;;10.40;99.90;;;;;;12160003;29;20131;-80
2022/05/28 02:46:21;;;;;;;10.82;1.85;;;10.20;99.90;;;;;;12156127;29;20309;-79
2022/05/28 02:52:23;;;;;;;9.30;1.92;;;10.30;99.90;;;;;;12138563;29;20049;-80
2022/05/28 02:58:26;;;;;;;11.68;2.00;;;10.40;99.90;;;;;;12154455;29;20063;-80
2022/05/28 03:04:28;;;;;;;9.60;1.83;;;10.30;99.90;;;;;;12154833;29;20056;-79
2022/05/28 03:10:30;;;;;;;9.88;1.88;;;10.40;99.90;;;;;;12136652;29;20131;-80
2022/05/28 03:16:32;;;;;;;12.75;1.73;;;10.10;99.90;;;;;;12144064;29;20068;-79
2022/05/28 03:22:34;;;;;;;7.57;1.45;;;10.10;99.90;;;;;;12132302;29;20082;-79
2022/05/28 03:28:36;;;;;;;7.57;1.60;;;10.10;99.90;;;;;;12136461;29;20052;-79
2022/05/28 03:34:38;;;;;;;7.10;0.93;;;10.00;99.90;;;;;;12132274;29;20687;-79
2022/05/28 03:40:40;;;;;;;5.00;1.45;;;10.00;99.90;;;;;;12151528;29;20509;-79
2022/05/28 03:46:43;;;;;;;8.50;1.40;;;9.90;99.90;;;;;;12139146;29;20117;-80
2022/05/28 03:52:45;;;;;;;9.23;1.38;;;9.90;99.90;;;;;;12140780;29;20052;-79
2022/05/28 03:58:47;;;;;;;8.48;1.15;;;9.90;99.90;;;;;;12152133;29;20064;-79
2022/05/28 04:04:49;;;;;;;5.50;1.27;;;10.10;99.90;;;;;;12148352;29;20386;-79
2022/05/28 04:10:51;;;;;;;9.93;1.27;;;10.00;99.90;;;;;;12152737;29;20541;-80
2022/05/28 04:16:53;;;;;;;8.02;1.33;;;9.90;99.90;;;;;;12150642;29;20063;-79
2022/05/28 04:22:55;;;;;;;10.20;1.52;;;9.80;99.90;;;;;;12145639;29;20060;-79
2022/05/28 04:28:56;;;;;;;11.00;1.52;;;9.90;99.90;;;;;;12132039;29;20060;-79
2022/05/28 04:34:58;;;;;;;6.18;1.35;;;9.90;99.90;;;;;;12153235;29;20056;-80
2022/05/28 04:41:00;;;;;;;5.45;1.25;;;9.90;99.90;;;;;;12145230;29;20167;-80
2022/05/28 04:47:03;;;;;;;9.98;1.35;;;10.00;99.90;;;;;;12166304;29;20071;-80
2022/05/28 04:53:05;;;;;;;8.50;1.30;;;9.90;99.90;;;;;;12161011;29;20048;-80
2022/05/28 04:59:07;;;;;;;11.68;1.50;;;9.90;99.90;;;;;;12158411;29;20497;-79
2022/05/28 05:05:09;;;;;;;9.45;2.60;;;9.80;99.90;;;;;;12149326;29;20060;-80
2022/05/28 05:11:11;;;;;;;14.15;1.63;;;9.90;99.90;;;;;;12133326;28;20048;-79
2022/05/28 05:17:13;;;;;;;8.80;1.63;;;9.90;99.90;;;;;;12144954;29;21133;-79
2022/05/28 05:23:17;;;;;;;11.70;1.55;;;10.00;99.90;;;;;;12149380;29;20055;-79
2022/05/28 05:29:19;;;;;;;9.65;1.63;;;10.20;99.90;;;;;;12144450;29;20086;-79
2022/05/28 05:35:21;;;;;;;6.70;1.45;;;10.20;99.90;;;;;;12134947;29;20142;-79
2022/05/28 05:41:23;;;;;;;8.35;1.98;;;10.10;99.90;;;;;;12158199;29;20052;-80
2022/05/28 05:47:25;;;;;;;12.52;1.40;;;10.20;99.90;;;;;;12152522;29;20108;-79
2022/05/28 05:53:26;;;;;;;11.95;1.65;;;10.30;99.90;;;;;;12147092;29;20055;-79
2022/05/28 05:59:29;;;;;;;11.18;1.73;;;10.30;99.90;;;;;;12145163;29;20404;-79
2022/05/28 06:05:31;;;;;;;6.90;1.30;;;10.50;99.90;;;;;;12177302;29;20137;-80
2022/05/28 06:11:33;;;;;;;11.60;1.60;;;10.70;99.90;;;;;;12156395;29;20119;-80
2022/05/28 06:17:35;;;;;;;11.90;1.70;;;10.70;99.90;;;;;;12144954;29;20087;-79
2022/05/28 06:23:38;;;;;;;10.48;2.22;;;10.70;99.90;;;;;;12154208;29;20048;-80
2022/05/28 06:29:40;;;;;;;7.43;1.13;;;10.70;99.90;;;;;;12156708;29;20083;-79
2022/05/28 06:35:42;;;;;;;6.80;1.30;;;10.80;99.90;;;;;;12135274;29;20056;-80
2022/05/28 06:41:43;;;;;;;8.98;1.38;;;10.60;99.90;;;;;;12155219;29;20119;-79
2022/05/28 06:47:46;;;;;;;10.55;1.45;;;10.50;99.90;;;;;;12136247;29;20057;-80
2022/05/28 06:53:50;;;;;;;6.43;1.27;;;10.50;99.90;;;;;;12151987;29;20052;-81
2022/05/28 06:59:51;;;;;;;4.83;1.27;;;10.40;99.90;;;;;;12127373;29;20064;-81
2022/05/28 07:05:54;;;;;;;6.85;1.30;;;10.40;99.90;;;;;;12135307;29;20098;-81
2022/05/28 07:11:56;;;;;;;8.48;1.35;;;10.40;99.90;;;;;;12139924;29;20045;-79
2022/05/28 07:17:58;;;;;;;9.25;1.60;;;10.40;99.90;;;;;;12137644;29;20064;-81
2022/05/28 07:24:00;;;;;;;11.48;1.65;;;10.60;99.90;;;;;;12151765;29;20116;-81
2022/05/28 07:30:03;;;;;;;10.32;1.58;;;10.80;99.90;;;;;;12141511;29;20115;-80
2022/05/28 07:36:08;;;;;;;9.18;1.60;;;11.00;99.90;;;;;;12155509;29;20112;-79
2022/05/28 07:42:10;;;;;;;7.50;1.60;;;11.10;99.90;;;;;;12138357;29;20056;-79
2022/05/28 07:48:14;;;;;;;7.88;1.60;;;11.10;99.90;;;;;;12152450;29;20067;-79
2022/05/28 07:54:16;;;;;;;14.18;1.90;;;11.20;99.90;;;;;;12138089;29;20044;-80
2022/05/28 08:00:18;;;;;;;11.65;1.90;;;11.10;99.90;;;;;;12151999;29;20060;-80
2022/05/28 08:06:21;;;;;;;6.35;1.23;;;11.10;99.90;;;;;;12140259;29;20161;-79
2022/05/28 08:12:22;;;;;;;9.27;1.42;;;11.30;99.90;;;;;;12159326;29;20068;-80
2022/05/28 08:18:25;;;;;;;8.75;1.55;;;11.20;99.90;;;;;;12158144;29;20751;-81
2022/05/28 08:24:26;;;;;;;12.90;2.15;;;11.40;99.90;;;;;;12159451;29;20052;-79
2022/05/28 08:30:29;;;;;;;10.23;2.05;;;11.60;99.90;;;;;;12161625;29;20140;-79
2022/05/28 08:36:32;;;;;;;10.68;1.70;;;11.70;99.90;;;;;;12149304;29;20071;-80
2022/05/28 08:42:34;;;;;;;12.07;1.58;;;11.90;99.90;;;;;;12154135;29;20064;-79
2022/05/28 08:48:50;;;;;;;13.52;2.97;;;12.10;99.90;;;;;;12154435;29;21614;-79
2022/05/28 08:55:21;;;;;;;9.82;1.77;;;12.00;99.90;;;;;;12148293;29;20428;-80
2022/05/28 09:01:24;;;;;;;8.50;1.50;;;12.00;99.90;;;;;;12154719;29;20596;-80
2022/05/28 09:07:26;;;;;;;8.30;1.58;;;11.90;99.90;;;;;;12157400;29;20056;-79
2022/05/28 09:13:36;;;;;;;8.57;1.88;;;11.50;99.90;;;;;;12138996;29;20759;-79
2022/05/28 09:19:45;;;;;;;9.35;1.20;;;11.30;99.90;;;;;;12142777;29;20160;-79
2022/05/28 09:25:49;;;;;;;6.80;1.27;;;11.30;99.90;;;;;;12159485;29;20055;-79
2022/05/28 09:31:53;;;;;;;8.43;1.67;;;11.50;99.90;;;;;;12157208;29;20048;-79
2022/05/28 09:38:05;;;;;;;6.55;0.98;;;11.80;99.90;;;;;;12156626;29;20541;-79
2022/05/28 09:44:39;;;;;;;8.00;1.20;;;11.90;99.90;;;;;;12155792;29;20458;-79
2022/05/28 09:50:42;;;;;;;6.07;1.35;;;12.00;99.90;;;;;;12138685;29;20086;-79
2022/05/28 09:57:10;;;;;;;7.78;1.23;;;12.10;99.90;;;;;;12140640;29;20056;-79
2022/05/28 10:09:35;;;;;;;11.90;1.55;;;12.40;99.90;;;;;;12153787;29;20066;-78
2022/05/28 10:15:46;;;;;;;9.43;1.98;;;12.20;99.90;;;;;;12157833;29;20073;-79
2022/05/28 10:21:54;;;;;;;10.95;1.50;;;11.90;99.90;;;;;;12167262;29;20059;-78
2022/05/28 10:27:57;;;;;;;7.45;1.27;;;11.90;99.90;;;;;;12177181;29;20096;-79
2022/05/28 10:33:59;;;;;;;10.07;1.67;;;11.80;99.90;;;;;;12168231;29;20452;-78
2022/05/28 10:40:09;;;;;;;3.67;0.82;;;12.10;99.90;;;;;;12193184;29;20100;-80
2022/05/28 10:46:19;;;;;;;4.95;1.20;;;12.40;99.90;;;;;;12170409;29;20189;-79
2022/05/28 10:52:40;;;;;;;6.60;1.40;;;13.20;99.90;;;;;;12175263;29;20078;-80
2022/05/28 10:59:01;;;;;;;7.22;1.85;;;13.20;99.90;;;;;;12135315;29;20104;-79
2022/05/28 11:05:39;;;;;;;5.38;1.17;;;13.00;99.90;;;;;;12151440;29;20056;-80
2022/05/28 11:11:54;;;;;;;6.10;1.20;;;13.00;99.90;;;;;;12115862;29;20144;-79
2022/05/28 11:18:26;;;;;;;5.85;1.40;;;13.30;99.90;;;;;;12166782;29;20204;-79
2022/05/28 11:24:41;;;;;;;9.90;1.27;;;13.50;99.90;;;;;;12161136;29;20115;-79
2022/05/28 11:30:47;;;;;;;5.15;1.08;;;13.20;99.90;;;;;;12181333;29;20663;-80
2022/05/28 11:36:58;;;;;;;5.82;1.20;;;12.10;99.90;;;;;;12149261;29;20122;-81
2022/05/28 11:56:49;;;;;;;6.47;1.40;;;12.20;99.90;;;;;;12163822;29;20452;-81
2022/05/28 12:03:08;;;;;;;12.00;2.10;;;12.80;99.90;;;;;;12180788;29;20060;-81
2022/05/28 12:09:24;;;;;;;10.73;1.92;;;13.40;99.90;;;;;;12175376;29;20075;-82
2022/05/28 12:15:29;;;;;;;14.10;2.22;;;13.50;99.90;;;;;;12185039;29;20467;-81
2022/05/28 12:21:40;;;;;;;6.88;1.13;;;13.50;99.90;;;;;;12188558;29;20063;-81
2022/05/28 12:27:43;;;;;;;10.20;1.67;;;13.00;99.90;;;;;;12194253;29;20082;-82
2022/05/28 12:33:52;;;;;;;4.93;1.02;;;12.30;99.90;;;;;;12188809;29;20049;-81
2022/05/28 12:40:04;;;;;;;14.55;1.73;;;12.20;99.90;;;;;;12392671;23;20840;-83
2022/05/28 12:46:17;;;;;;;6.82;1.65;;;12.40;99.90;;;;;;12213756;29;20080;-82
2022/05/28 12:52:25;;;;;;;7.30;1.77;;;13.20;99.90;;;;;;12236461;29;20082;-85
2022/05/28 12:58:31;;;;;;;9.38;1.90;;;13.60;99.90;;;;;;12239993;29;20479;-83
2022/05/28 13:04:42;;;;;;;7.38;1.70;;;14.00;99.90;;;;;;12246137;29;20090;-83
2022/05/28 13:10:52;;;;;;;11.80;1.90;;;13.60;99.90;;;;;;12218311;29;20554;-84
2022/05/28 13:17:32;;;;;;;8.95;1.50;;;13.10;99.90;;;;;;12219295;29;20052;-84
2022/05/28 13:23:52;;;;;;;7.55;1.50;;;13.00;99.90;;;;;;12228976;29;20065;-83
2022/05/28 13:30:14;;;;;;;7.75;1.63;;;13.80;99.90;;;;;;12215726;29;20118;-82
2022/05/28 13:36:16;;;;;;;11.13;1.65;;;13.60;99.90;;;;;;12235479;29;20067;-84
2022/05/28 13:42:19;;;;;;;8.15;2.05;;;13.10;99.90;;;;;;12191522;29;20080;-83
2022/05/28 13:48:25;;;;;;;6.28;1.30;;;13.00;99.90;;;;;;12162863;29;20061;-84
2022/05/28 13:54:27;;;;;;;10.18;1.90;;;13.40;99.90;;;;;;12212761;29;20052;-83
2022/05/28 14:00:31;;;;;;;11.00;2.30;;;13.80;99.90;;;;;;12157726;29;20583;-82
2022/05/28 14:06:37;;;;;;;11.85;3.38;;;13.50;99.90;;;;;;12184206;29;20049;-84
2022/05/28 14:12:40;;;;;;;12.02;2.15;;;13.30;99.90;;;;;;12205277;29;20139;-83
2022/05/28 14:18:42;;;;;;;10.60;2.20;;;13.20;99.90;;;;;;12176582;29;20496;-84
2022/05/28 14:24:47;;;;;;;11.38;1.60;;;13.00;99.90;;;;;;12185428;29;20051;-84
2022/05/28 14:30:49;;;;;;;12.00;2.30;;;13.60;99.90;;;;;;12148601;29;20682;-84
2022/05/28 14:36:57;;;;;;;10.02;1.92;;;13.90;99.90;;;;;;12165327;29;20485;-82
2022/05/28 14:43:00;;;;;;;8.60;1.55;;;13.90;99.90;;;;;;12163932;29;20056;-82
2022/05/28 14:49:05;;;;;;;5.85;1.10;;;13.80;99.90;;;;;;12163898;29;20052;-83
2022/05/28 14:55:10;;;;;;;5.60;1.30;;;13.60;99.90;;;;;;12148953;29;20536;-84
2022/05/28 15:01:13;;;;;;;4.10;1.08;;;13.50;99.90;;;;;;12159438;29;20527;-82
2022/05/28 15:07:25;;;;;;;8.13;1.33;;;13.50;99.90;;;;;;12169242;29;20492;-83
2022/05/28 15:13:32;;;;;;;9.77;1.75;;;13.80;99.90;;;;;;12155872;29;20051;-82
2022/05/28 15:19:34;;;;;;;6.72;1.17;;;14.10;99.90;;;;;;12155944;29;20059;-84
2022/05/28 15:25:36;;;;;;;6.63;1.60;;;14.50;99.90;;;;;;12174288;29;20115;-84
2022/05/28 15:31:38;;;;;;;6.28;1.10;;;14.50;99.90;;;;;;12144072;29;20287;-84
2022/05/28 15:37:52;;;;;;;6.65;1.27;;;14.10;99.90;;;;;;12155344;29;20052;-84
2022/05/28 15:43:54;;;;;;;5.83;1.00;;;14.00;99.90;;;;;;12171947;29;20060;-82
2022/05/28 15:49:57;;;;;;;4.85;0.98;;;14.00;99.90;;;;;;12152665;29;20412;-83
2022/05/28 15:56:00;;;;;;;6.57;1.55;;;13.90;99.90;;;;;;12154442;29;20454;-83
2022/05/28 16:02:07;;;;;;;7.50;1.33;;;13.80;99.90;;;;;;12158184;29;20051;-83
2022/05/28 16:08:22;;;;;;;7.15;1.48;;;14.00;99.90;;;;;;12177298;29;21432;-83
2022/05/28 16:14:31;;;;;;;5.63;1.40;;;14.10;99.90;;;;;;12153188;29;20533;-82
2022/05/28 16:20:33;;;;;;;8.25;1.38;;;13.60;99.90;;;;;;12138259;29;20095;-83
2022/05/28 16:26:36;;;;;;;5.13;1.20;;;13.50;99.90;;;;;;12167821;29;20056;-83
2022/05/28 16:32:38;;;;;;;5.13;1.13;;;13.60;99.90;;;;;;12171522;29;20060;-82
2022/05/28 16:38:39;;;;;;;7.15;1.30;;;13.40;99.90;;;;;;12161846;29;20056;-84
2022/05/28 16:44:41;;;;;;;7.03;1.20;;;13.30;99.90;;;;;;12173704;29;20472;-84
2022/05/28 16:50:44;;;;;;;7.47;1.63;;;13.30;99.90;;;;;;12158126;29;20059;-83
2022/05/28 16:56:46;;;;;;;9.38;1.50;;;13.30;99.90;;;;;;12145575;29;20067;-83
2022/05/28 17:02:48;;;;;;;7.88;1.58;;;13.30;99.90;;;;;;12174885;29;20103;-83
2022/05/28 17:08:51;;;;;;;11.55;2.03;;;13.10;99.90;;;;;;12163079;29;20125;-82
2022/05/28 17:14:53;;;;;;;7.25;1.63;;;13.10;99.90;;;;;;12179742;29;20067;-83
2022/05/28 17:20:57;;;;;;;10.73;1.63;;;12.90;99.90;;;;;;12180267;29;20464;-84
2022/05/28 17:26:59;;;;;;;11.40;1.67;;;12.90;99.90;;;;;;12164682;29;20107;-84
2022/05/28 17:33:03;;;;;;;10.23;1.60;;;13.10;99.90;;;;;;12177777;29;20056;-83
2022/05/28 17:39:05;;;;;;;8.07;1.83;;;13.10;99.90;;;;;;12170314;29;20504;-84
2022/05/28 17:45:09;;;;;;;10.20;1.40;;;13.00;99.90;;;;;;12164156;29;20060;-84
2022/05/28 17:51:15;;;;;;;;;;;13.00;99.90;;;;;;12189186;29;20568;-83
2022/05/28 17:57:18;;;;;;;7.45;1.30;;;12.90;99.90;;;;;;12186707;29;19931;-84
2022/05/28 18:03:23;;;;;;;10.63;2.60;;;12.80;99.90;;;;;;12184639;29;20468;-83
2022/05/28 18:09:26;;;;;;;9.18;1.63;;;12.60;99.90;;;;;;12162612;29;20134;-82
2022/05/28 18:15:28;;;;;;;11.05;1.60;;;12.40;99.90;;;;;;12158739;29;20055;-83
2022/05/28 18:21:40;;;;;;;11.73;1.58;;;12.40;99.90;;;;;;12163849;29;20103;-83
2022/05/28 18:27:42;;;;;;;5.70;1.23;;;12.20;99.90;;;;;;12165734;29;20135;-83
2022/05/28 18:33:45;;;;;;;6.65;1.83;;;12.10;99.90;;;;;;12182332;29;20063;-83
2022/05/28 18:39:50;;;;;;;7.20;1.10;;;12.20;99.90;;;;;;12183648;29;20052;-83
2022/05/28 18:45:52;;;;;;;4.45;1.02;;;12.20;99.90;;;;;;12177441;29;20829;-83
2022/05/28 18:51:54;;;;;;;6.72;1.38;;;12.20;99.90;;;;;;12146428;29;20075;-83
2022/05/28 18:57:56;;;;;;;3.92;0.80;;;12.20;99.90;;;;;;12167812;29;20083;-83
2022/05/28 19:04:00;;;;;;;2.83;0.80;;;12.20;99.90;;;;;;12152988;29;20207;-83
2022/05/28 19:10:09;;;;;;;2.22;0.75;;;12.10;99.90;;;;;;12161576;29;20086;-84
2022/05/28 19:16:16;;;;;;;7.03;0.85;;;11.90;99.90;;;;;;12151733;29;20547;-84
2022/05/28 19:22:18;;;;;;;3.58;0.70;;;11.80;99.90;;;;;;12169591;29;20064;-83
2022/05/28 19:28:20;;;;;;;5.63;0.80;;;11.70;99.90;;;;;;12180839;29;20048;-83
2022/05/28 19:34:24;;;;;;;3.78;1.00;;;11.60;99.90;;;;;;12168781;29;20052;-84
2022/05/28 19:40:29;;;;;;;7.40;1.10;;;11.70;99.90;;;;;;12164597;29;20111;-84
2022/05/28 19:46:34;;;;;;;5.10;0.90;;;11.40;99.90;;;;;;12174208;29;20452;-85
2022/05/28 19:52:36;;;;;;;3.95;1.02;;;11.30;99.90;;;;;;12154793;29;20052;-83
2022/05/28 19:58:38;;;;;;;6.50;1.05;;;11.50;99.90;;;;;;12153173;29;20630;-83
2022/05/28 20:04:40;;;;;;;4.80;0.93;;;11.50;99.90;;;;;;12175708;29;20056;-83
2022/05/28 20:10:44;;;;;;;3.92;0.98;;;11.50;99.90;;;;;;12165783;29;20114;-83
2022/05/28 20:16:45;;;;;;;7.22;1.02;;;11.50;99.90;;;;;;12166231;29;20056;-83
2022/05/28 20:22:48;;;;;;;6.50;1.40;;;11.30;99.90;;;;;;12170873;29;20146;-82
2022/05/28 20:28:51;;;;;;;8.88;1.20;;;11.20;99.90;;;;;;12145011;29;20087;-84
2022/05/28 20:34:52;;;;;;;4.43;1.05;;;11.00;99.90;;;;;;12176920;29;20048;-83
2022/05/28 20:40:54;;;;;;;5.72;1.25;;;11.10;99.90;;;;;;12164659;29;20060;-81
2022/05/28 20:47:02;;;;;;;9.52;1.95;;;11.10;99.90;;;;;;12163817;29;20830;-84
2022/05/28 20:53:04;;;;;;;3.85;1.00;;;11.10;99.90;;;;;;12147470;29;20056;-84
2022/05/28 20:59:06;;;;;;;5.55;1.13;;;11.00;99.90;;;;;;12164538;29;20600;-83
2022/05/28 21:05:09;;;;;;;9.45;1.88;;;11.10;99.90;;;;;;12175421;29;20168;-83
2022/05/28 21:11:15;;;;;;;5.82;1.30;;;11.10;99.90;;;;;;12153734;29;20056;-83
2022/05/28 21:17:20;;;;;;;6.13;1.33;;;11.00;99.90;;;;;;12163503;29;20501;-84
2022/05/28 21:23:24;;;;;;;6.22;1.58;;;10.90;99.90;;;;;;12182565;29;20459;-83
2022/05/28 21:35:47;;;;;;;8.38;1.35;;;10.70;99.90;;;;;;12180926;29;20067;-83
2022/05/28 21:41:49;;;;;;;7.40;1.48;;;10.80;99.90;;;;;;12162186;29;20755;-83
2022/05/28 21:47:56;;;;;;;7.93;1.05;;;10.50;99.90;;;;;;12184541;29;20048;-83
2022/05/28 21:53:58;;;;;;;9.30;1.63;;;10.60;99.90;;;;;;12160845;29;20143;-82
2022/05/28 22:00:00;;;;;;;6.60;1.23;;;10.40;99.90;;;;;;12170033;29;20056;-82
2022/05/28 22:06:02;;;;;;;5.45;1.20;;;10.50;99.90;;;;;;12163007;29;20056;-83
2022/05/28 22:12:05;;;;;;;6.82;1.67;;;10.50;99.90;;;;;;12175886;29;20119;-84
2022/05/28 22:18:07;;;;;;;11.00;1.58;;;10.30;99.90;;;;;;12164061;29;20525;-83
2022/05/28 22:24:09;;;;;;;5.25;1.30;;;10.30;99.90;;;;;;12170154;29;20056;-83
2022/05/28 22:30:11;;;;;;;8.57;1.85;;;10.20;99.90;;;;;;12182975;29;20548;-82
2022/05/28 22:36:13;;;;;;;6.15;1.70;;;10.20;99.90;;;;;;12176499;29;20052;-83
2022/05/28 22:42:15;;;;;;;4.72;1.50;;;10.20;99.90;;;;;;12165242;29;20103;-83
2022/05/28 22:48:27;;;;;;;9.82;1.58;;;10.10;99.90;;;;;;12166252;29;20052;-83
2022/05/28 22:54:30;;;;;;;3.22;1.10;;;10.20;99.90;;;;;;12167768;29;20056;-83
2022/05/28 23:00:33;;;;;;;6.60;2.10;;;10.40;99.90;;;;;;12164035;29;20149;-82
2022/05/28 23:06:36;;;;;;;11.63;1.60;;;10.30;99.90;;;;;;12173642;29;20071;-84
2022/05/28 23:12:38;;;;;;;9.15;1.98;;;10.20;99.90;;;;;;12182918;29;20131;-84
2022/05/28 23:18:41;;;;;;;7.65;1.35;;;10.20;99.90;;;;;;12151630;29;20151;-83
2022/05/28 23:31:09;;;;;;;8.80;1.60;;;10.20;99.90;;;;;;12170578;29;20087;-84
2022/05/28 23:37:16;;;;;;;9.43;1.83;;;10.00;99.90;;;;;;12158189;29;20060;-84
2022/05/28 23:43:18;;;;;;;7.32;1.85;;;10.00;99.90;;;;;;12165562;29;20593;-83
2022/05/28 23:49:28;;;;;;;9.07;1.63;;;10.00;99.90;;;;;;12176886;29;20048;-83
2022/05/28 23:55:30;;;;;;;7.30;1.77;;;9.80;99.90;;;;;;12169899;29;20103;-83
